createdAt,value
2023-01-08T00:10:46.002Z,37.21
2023-01-08T00:15:50.780Z,36.97
2023-01-08T00:20:56.437Z,36.40
2023-01-08T00:26:05.584Z,36.96
2023-01-08T00:31:13.075Z,36.68
2023-01-08T00:36:28.237Z,36.36
2023-01-08T00:41:36.116Z,35.92
2023-01-08T00:46:42.983Z,35.26
2023-01-08T00:51:49.106Z,35.59
2023-01-08T00:56:53.702Z,36.21
2023-01-08T01:01:59.386Z,36.12
2023-01-08T01:07:04.348Z,35.38
2023-01-08T01:12:09.208Z,36.34
2023-01-08T01:17:16.127Z,35.32
2023-01-08T01:22:20.691Z,35.40
2023-01-08T01:27:26.901Z,35.19
2023-01-08T01:32:32.607Z,33.79
2023-01-08T01:37:37.395Z,34.72
2023-01-08T01:42:42.122Z,34.08
2023-01-08T01:47:57.507Z,34.48
2023-01-08T01:53:24.981Z,34.08
2023-01-08T01:58:33.276Z,34.56
2023-01-08T02:03:42.730Z,34.20
2023-01-08T02:09:14.253Z,34.32
2023-01-08T02:14:20.077Z,34.27
2023-01-08T02:19:54.717Z,34.07
2023-01-08T02:25:23.899Z,34.08
2023-01-08T02:30:30.528Z,34.03
2023-01-08T02:35:46.955Z,33.95
2023-01-08T02:41:10.856Z,33.90
2023-01-08T02:46:24.224Z,33.94
2023-01-08T02:51:48.493Z,33.80
2023-01-08T02:57:02.977Z,33.77
2023-01-08T03:02:09.363Z,33.16
2023-01-08T03:07:14.881Z,33.11
2023-01-08T03:12:29.605Z,33.13
2023-01-08T03:18:00.266Z,33.27
2023-01-08T03:23:10.071Z,33.12
2023-01-08T03:28:25.472Z,32.43
2023-01-08T03:33:33.617Z,32.79
2023-01-08T03:38:51.917Z,32.82
2023-01-08T03:43:57.820Z,32.75
2023-01-08T03:49:04.327Z,32.81
2023-01-08T03:54:14.731Z,32.65
2023-01-08T03:59:21.168Z,32.43
2023-01-08T04:04:26.294Z,32.38
2023-01-08T04:09:31.167Z,32.68
2023-01-08T04:14:37.360Z,32.67
2023-01-08T04:19:43.742Z,33.30
2023-01-08T04:24:49.198Z,32.63
2023-01-08T04:29:54.020Z,32.96
2023-01-08T04:34:59.267Z,33.12
2023-01-08T04:40:04.494Z,32.71
2023-01-08T04:45:10.264Z,32.04
2023-01-08T04:50:15.572Z,32.54
2023-01-08T04:55:21.030Z,32.03
2023-01-08T05:00:25.652Z,31.59
2023-01-08T05:05:31.452Z,32.71
2023-01-08T05:10:39.360Z,32.66
2023-01-08T05:15:46.145Z,32.25
2023-01-08T05:20:53.971Z,32.05
2023-01-08T05:26:05.054Z,32.49
2023-01-08T05:31:13.524Z,31.61
2023-01-08T05:36:19.626Z,31.47
2023-01-08T05:41:25.221Z,31.49
2023-01-08T05:46:31.484Z,32.10
2023-01-08T05:51:36.614Z,31.61
2023-01-08T05:56:46.173Z,31.70
2023-01-08T06:01:52.578Z,31.62
2023-01-08T06:06:57.893Z,30.38
2023-01-08T06:12:04.441Z,30.81
2023-01-08T06:17:10.306Z,30.78
2023-01-08T06:22:16.256Z,30.70
2023-01-08T06:27:21.148Z,31.21
2023-01-08T06:32:25.928Z,31.21
2023-01-08T06:37:30.648Z,31.13
2023-01-08T06:42:36.685Z,31.11
2023-01-08T06:47:41.548Z,31.20
2023-01-08T06:52:46.262Z,31.10
2023-01-08T06:57:54.990Z,31.33
2023-01-08T07:02:59.975Z,30.87
2023-01-08T07:08:05.515Z,29.78
2023-01-08T07:13:10.777Z,30.66
2023-01-08T07:18:15.587Z,31.12
2023-01-08T07:23:20.469Z,30.86
2023-01-08T07:28:25.294Z,30.90
2023-01-08T07:33:30.221Z,30.74
2023-01-08T07:38:35.169Z,30.40
2023-01-08T07:43:39.996Z,30.23
2023-01-08T07:48:44.869Z,30.63
2023-01-08T07:53:52.669Z,30.64
2023-01-08T07:58:57.991Z,30.30
2023-01-08T08:04:02.777Z,30.78
2023-01-08T08:09:07.515Z,30.79
2023-01-08T08:14:12.209Z,30.78
2023-01-08T08:19:17.445Z,30.97
2023-01-08T08:24:22.212Z,31.03
2023-01-08T08:29:27.040Z,30.88
2023-01-08T08:34:31.936Z,30.79
2023-01-08T08:39:36.792Z,30.65
2023-01-08T08:44:42.991Z,30.70
2023-01-08T08:49:48.651Z,30.83
2023-01-08T08:54:53.441Z,31.28
2023-01-08T08:59:59.789Z,31.13
2023-01-08T09:05:06.076Z,31.11
2023-01-08T09:10:11.188Z,31.39
2023-01-08T09:15:16.062Z,30.92
2023-01-08T09:20:21.112Z,31.00
2023-01-08T09:25:25.936Z,30.91
2023-01-08T09:30:31.606Z,31.04
2023-01-08T09:35:36.706Z,30.95
2023-01-08T09:41:07.967Z,31.33
2023-01-08T09:46:14.837Z,30.79
2023-01-08T09:51:21.791Z,31.32
2023-01-08T09:56:26.982Z,31.29
2023-01-08T10:01:36.737Z,31.25
2023-01-08T10:06:43.513Z,31.28
2023-01-08T10:11:51.557Z,31.25
2023-01-08T10:17:34.268Z,31.33
2023-01-08T10:22:39.065Z,31.11
2023-01-08T10:27:55.927Z,31.24
2023-01-08T10:33:06.946Z,31.43
2023-01-08T10:38:50.117Z,31.28
2023-01-08T10:44:03.972Z,31.16
2023-01-08T10:49:16.185Z,31.37
2023-01-08T10:54:41.284Z,31.20
2023-01-08T10:59:47.500Z,31.26
2023-01-08T11:04:54.790Z,31.25
2023-01-08T11:09:59.941Z,31.33
2023-01-08T11:15:32.207Z,31.60
2023-01-08T11:20:38.557Z,31.55
2023-01-08T11:25:47.329Z,31.82
2023-01-08T11:31:01.711Z,31.39
2023-01-08T11:36:37.968Z,31.68
2023-01-08T11:42:05.321Z,31.41
2023-01-08T11:47:21.883Z,31.83
2023-01-08T11:52:46.779Z,31.96
2023-01-08T11:58:10.092Z,31.59
2023-01-08T12:03:31.967Z,31.87
2023-01-08T12:09:15.977Z,32.11
2023-01-08T12:14:39.313Z,32.24
2023-01-08T12:20:02.249Z,32.34
2023-01-08T12:25:44.375Z,32.36
2023-01-08T12:31:13.917Z,33.87
2023-01-08T12:36:27.136Z,33.96
2023-01-08T12:41:35.971Z,33.81
2023-01-08T12:46:50.279Z,33.78
2023-01-08T12:52:13.991Z,34.54
2023-01-08T12:57:23.582Z,34.63
2023-01-08T13:02:53.759Z,34.19
2023-01-08T13:08:06.674Z,33.90
2023-01-08T13:13:35.535Z,34.17
2023-01-08T13:18:41.911Z,34.54
2023-01-08T13:23:46.798Z,34.56
2023-01-08T13:28:52.485Z,34.62
2023-01-08T13:33:58.052Z,34.82
2023-01-08T13:39:07.993Z,34.58
2023-01-08T13:44:33.325Z,34.02
2023-01-08T13:49:45.383Z,34.24
2023-01-08T13:54:50.993Z,34.58
2023-01-08T14:00:00.046Z,33.76
2023-01-08T14:05:14.311Z,33.52
2023-01-08T14:10:20.628Z,33.83
2023-01-08T14:15:31.871Z,32.97
2023-01-08T14:20:42.455Z,32.96
2023-01-08T14:25:52.474Z,32.96
2023-01-08T14:30:59.620Z,33.41
2023-01-08T14:36:08.527Z,33.46
2023-01-08T14:41:16.476Z,33.83
2023-01-08T14:46:34.305Z,33.79
2023-01-08T14:51:44.355Z,34.08
2023-01-08T14:56:56.186Z,34.01
2023-01-08T15:02:04.709Z,34.13
2023-01-08T15:07:22.909Z,33.45
2023-01-08T15:12:32.141Z,33.40
2023-01-08T15:17:38.544Z,33.74
2023-01-08T15:22:49.586Z,32.77
2023-01-08T15:28:09.113Z,32.83
2023-01-08T15:33:28.986Z,32.70
2023-01-08T15:38:35.132Z,33.53
2023-01-08T15:43:42.232Z,33.55
2023-01-08T15:48:55.969Z,34.04
2023-01-08T15:54:02.258Z,34.07
2023-01-08T15:59:07.310Z,35.19
2023-01-08T16:04:14.400Z,33.41
2023-01-08T16:09:19.644Z,33.51
2023-01-08T16:14:26.064Z,33.25
2023-01-08T16:19:32.637Z,33.44
2023-01-08T16:24:40.708Z,33.08
2023-01-08T16:29:45.833Z,33.07
2023-01-08T16:34:51.970Z,33.42
2023-01-08T16:40:00.825Z,33.63
2023-01-08T16:45:06.397Z,33.52
2023-01-08T16:50:15.543Z,33.92
2023-01-08T16:55:20.912Z,33.98
2023-01-08T17:00:27.587Z,33.36
2023-01-08T17:05:34.132Z,33.45
2023-01-08T17:10:41.738Z,33.86
2023-01-08T17:15:49.054Z,34.44
2023-01-08T17:20:57.504Z,33.95
2023-01-08T17:26:05.795Z,33.54
2023-01-08T17:31:14.314Z,33.32
2023-01-08T17:36:27.671Z,33.14
2023-01-08T17:41:51.325Z,33.53
2023-01-08T17:46:56.495Z,33.48
2023-01-08T17:52:01.809Z,33.96
2023-01-08T17:57:08.119Z,34.26
2023-01-08T18:02:16.087Z,34.06
2023-01-08T18:07:21.830Z,33.78
2023-01-08T18:12:28.117Z,34.04
2023-01-08T18:17:33.979Z,34.37
2023-01-08T18:22:39.729Z,34.64
2023-01-08T18:27:45.116Z,34.44
2023-01-08T18:32:52.170Z,34.05
2023-01-08T18:37:58.488Z,34.06
2023-01-08T18:43:05.306Z,33.68
2023-01-08T18:48:13.598Z,33.33
2023-01-08T18:53:18.372Z,34.08
2023-01-08T18:58:24.336Z,35.47
2023-01-08T19:03:29.877Z,33.90
2023-01-08T19:08:34.745Z,33.60
2023-01-08T19:13:40.704Z,33.45
2023-01-08T19:18:45.782Z,33.43
2023-01-08T19:23:50.817Z,33.23
2023-01-08T19:28:55.450Z,33.21
2023-01-08T19:34:01.122Z,32.35
2023-01-08T19:39:06.600Z,31.47
2023-01-08T19:44:11.551Z,31.62
2023-01-08T19:49:16.174Z,31.48
2023-01-08T19:54:24.326Z,31.59
2023-01-08T19:59:28.955Z,31.91
2023-01-08T20:04:35.371Z,31.93
2023-01-08T20:09:40.196Z,31.67
2023-01-08T20:14:44.818Z,31.75
2023-01-08T20:19:50.214Z,32.34
2023-01-08T20:24:57.006Z,32.50
2023-01-08T20:30:02.974Z,32.75
2023-01-08T20:35:08.038Z,32.64
2023-01-08T20:40:13.101Z,32.12
2023-01-08T20:45:17.999Z,32.12
2023-01-08T20:50:23.510Z,32.43
2023-01-08T20:55:29.284Z,32.25
2023-01-08T21:00:33.980Z,32.02
2023-01-08T21:05:40.587Z,32.27
2023-01-08T21:10:45.215Z,32.65
2023-01-08T21:15:50.127Z,31.72
2023-01-08T21:21:06.217Z,32.06
2023-01-08T21:26:13.318Z,32.00
2023-01-08T21:31:23.923Z,32.27
2023-01-08T21:36:33.876Z,32.73
2023-01-08T21:41:57.493Z,33.33
2023-01-08T21:47:03.235Z,32.90
2023-01-08T21:52:27.128Z,33.02
2023-01-08T21:57:32.852Z,32.82
2023-01-08T22:02:38.299Z,33.36
2023-01-08T22:07:42.953Z,32.77
2023-01-08T22:12:47.567Z,33.51
2023-01-08T22:17:52.970Z,33.28
2023-01-08T22:22:58.315Z,32.92
2023-01-08T22:28:03.771Z,33.50
2023-01-08T22:33:08.354Z,33.57
2023-01-08T22:38:12.912Z,33.59
2023-01-08T22:43:18.523Z,33.71
2023-01-08T22:48:23.207Z,34.07
2023-01-08T22:53:27.989Z,33.60
2023-01-08T22:58:43.882Z,34.08
2023-01-08T23:03:57.575Z,33.66
2023-01-08T23:09:02.935Z,33.70
2023-01-08T23:14:07.520Z,34.06
2023-01-08T23:19:12.312Z,33.77
2023-01-08T23:24:17.022Z,33.99
2023-01-08T23:29:22.686Z,33.88
2023-01-08T23:34:27.364Z,34.21
2023-01-08T23:39:32.672Z,33.91
2023-01-08T23:44:38.333Z,34.51
2023-01-08T23:49:42.903Z,34.71
2023-01-08T23:54:48.299Z,34.39
2023-01-08T23:59:53.068Z,34.55
